sensor_id;sensor_type;location;lat;lon;timestamp;pressure;altitude;pressure_sealevel;temperature;humidity
50636;BME280;36598;46.054;11.130;2022-07-29T00:01:32;99217.78;;;21.33;70.84
50636;BME280;36598;46.054;11.130;2022-07-29T00:03:57;99221.28;;;21.84;70.13
50636;BME280;36598;46.054;11.130;2022-07-29T00:06:23;99219.63;;;21.92;70.42
50636;BME280;36598;46.054;11.130;2022-07-29T00:08:48;99216.41;;;22.19;69.94
50636;BME280;36598;46.054;11.130;2022-07-29T00:11:13;99221.59;;;22.47;69.64
50636;BME280;36598;46.054;11.130;2022-07-29T00:13:39;99229.66;;;22.60;69.25
50636;BME280;36598;46.054;11.130;2022-07-29T00:16:04;99233.16;;;22.49;69.81
50636;BME280;36598;46.054;11.130;2022-07-29T00:18:29;99237.75;;;22.72;68.14
50636;BME280;36598;46.054;11.130;2022-07-29T00:20:54;99242.41;;;22.75;68.85
50636;BME280;36598;46.054;11.130;2022-07-29T00:23:20;99231.69;;;22.80;68.91
50636;BME280;36598;46.054;11.130;2022-07-29T00:25:45;99236.44;;;22.94;68.21
50636;BME280;36598;46.054;11.130;2022-07-29T00:28:10;99233.78;;;22.85;68.07
50636;BME280;36598;46.054;11.130;2022-07-29T00:30:35;99241.63;;;22.95;67.66
50636;BME280;36598;46.054;11.130;2022-07-29T00:33:01;99244.28;;;23.10;67.98
50636;BME280;36598;46.054;11.130;2022-07-29T00:35:26;99250.72;;;23.11;68.93
50636;BME280;36598;46.054;11.130;2022-07-29T00:38:13;99250.03;;;23.21;68.43
50636;BME280;36598;46.054;11.130;2022-07-29T00:40:39;99257.50;;;22.72;69.85
50636;BME280;36598;46.054;11.130;2022-07-29T00:43:04;99255.22;;;22.97;69.50
50636;BME280;36598;46.054;11.130;2022-07-29T00:45:29;99259.25;;;22.90;69.89
50636;BME280;36598;46.054;11.130;2022-07-29T00:47:55;99266.56;;;22.82;69.80
50636;BME280;36598;46.054;11.130;2022-07-29T00:50:20;99259.09;;;22.53;71.29
50636;BME280;36598;46.054;11.130;2022-07-29T00:52:46;99258.06;;;22.77;70.73
50636;BME280;36598;46.054;11.130;2022-07-29T00:55:12;99251.84;;;22.72;69.77
50636;BME280;36598;46.054;11.130;2022-07-29T00:57:38;99245.59;;;22.16;71.89
50636;BME280;36598;46.054;11.130;2022-07-29T01:00:04;99255.78;;;22.55;71.21
50636;BME280;36598;46.054;11.130;2022-07-29T01:02:30;99251.22;;;22.37;71.73
50636;BME280;36598;46.054;11.130;2022-07-29T01:04:55;99250.91;;;22.35;71.48
50636;BME280;36598;46.054;11.130;2022-07-29T01:07:22;99260.72;;;22.39;70.09
50636;BME280;36598;46.054;11.130;2022-07-29T01:09:47;99258.22;;;21.86;71.79
50636;BME280;36598;46.054;11.130;2022-07-29T01:12:19;99257.53;;;22.11;71.53
50636;BME280;36598;46.054;11.130;2022-07-29T01:14:46;99261.25;;;22.03;71.83
50636;BME280;36598;46.054;11.130;2022-07-29T01:30:09;99276.25;;;21.94;71.26
50636;BME280;36598;46.054;11.130;2022-07-29T01:32:35;99274.06;;;22.04;69.78
50636;BME280;36598;46.054;11.130;2022-07-29T01:35:04;99265.28;;;21.61;72.64
50636;BME280;36598;46.054;11.130;2022-07-29T01:37:39;99262.81;;;22.04;71.29
50636;BME280;36598;46.054;11.130;2022-07-29T01:40:09;99255.63;;;22.03;70.81
50636;BME280;36598;46.054;11.130;2022-07-29T01:42:39;99262.50;;;22.16;67.36
50636;BME280;36598;46.054;11.130;2022-07-29T01:47:54;99256.81;;;21.96;67.84
50636;BME280;36598;46.054;11.130;2022-07-29T01:50:22;99257.38;;;22.00;68.58
50636;BME280;36598;46.054;11.130;2022-07-29T01:53:00;99262.44;;;21.96;68.73
50636;BME280;36598;46.054;11.130;2022-07-29T01:55:29;99253.53;;;22.18;68.60
50636;BME280;36598;46.054;11.130;2022-07-29T01:57:56;99249.53;;;22.24;68.60
50636;BME280;36598;46.054;11.130;2022-07-29T02:00:22;99254.75;;;22.32;67.40
50636;BME280;36598;46.054;11.130;2022-07-29T02:02:48;99246.41;;;22.22;68.35
50636;BME280;36598;46.054;11.130;2022-07-29T02:05:15;99256.56;;;22.35;67.67
50636;BME280;36598;46.054;11.130;2022-07-29T02:07:43;99254.00;;;21.96;69.27
50636;BME280;36598;46.054;11.130;2022-07-29T02:10:09;99258.97;;;21.86;69.98
50636;BME280;36598;46.054;11.130;2022-07-29T02:12:36;99252.09;;;21.52;71.32
50636;BME280;36598;46.054;11.130;2022-07-29T02:15:03;99251.13;;;21.55;71.97
50636;BME280;36598;46.054;11.130;2022-07-29T02:17:37;99251.03;;;21.85;70.93
50636;BME280;36598;46.054;11.130;2022-07-29T02:20:04;99254.00;;;21.75;69.99
50636;BME280;36598;46.054;11.130;2022-07-29T02:22:31;99255.34;;;21.65;70.03
50636;BME280;36598;46.054;11.130;2022-07-29T02:24:58;99256.13;;;21.66;69.34
50636;BME280;36598;46.054;11.130;2022-07-29T02:27:24;99256.28;;;21.27;71.33
50636;BME280;36598;46.054;11.130;2022-07-29T02:29:52;99256.19;;;21.21;70.86
50636;BME280;36598;46.054;11.130;2022-07-29T02:32:18;99269.19;;;21.19;71.35
50636;BME280;36598;46.054;11.130;2022-07-29T02:34:44;99256.19;;;21.36;70.25
50636;BME280;36598;46.054;11.130;2022-07-29T02:37:11;99262.31;;;21.35;70.62
50636;BME280;36598;46.054;11.130;2022-07-29T02:39:37;99249.28;;;20.93;71.47
50636;BME280;36598;46.054;11.130;2022-07-29T02:42:05;99255.13;;;21.04;71.73
50636;BME280;36598;46.054;11.130;2022-07-29T02:44:32;99252.78;;;20.88;71.70
50636;BME280;36598;46.054;11.130;2022-07-29T02:47:13;99245.91;;;21.18;71.05
50636;BME280;36598;46.054;11.130;2022-07-29T02:54:57;99249.59;;;20.80;72.29
50636;BME280;36598;46.054;11.130;2022-07-29T02:59:49;99248.53;;;20.78;72.48
50636;BME280;36598;46.054;11.130;2022-07-29T03:02:16;99258.59;;;21.14;71.39
50636;BME280;36598;46.054;11.130;2022-07-29T03:04:42;99256.47;;;21.23;70.92
50636;BME280;36598;46.054;11.130;2022-07-29T03:07:09;99251.53;;;20.74;71.81
50636;BME280;36598;46.054;11.130;2022-07-29T03:09:35;99260.25;;;20.76;72.22
50636;BME280;36598;46.054;11.130;2022-07-29T03:12:01;99250.38;;;20.95;71.56
50636;BME280;36598;46.054;11.130;2022-07-29T03:14:26;99255.03;;;21.13;70.77
50636;BME280;36598;46.054;11.130;2022-07-29T03:16:52;99260.06;;;20.65;72.33
50636;BME280;36598;46.054;11.130;2022-07-29T03:19:18;99260.25;;;21.06;71.26
50636;BME280;36598;46.054;11.130;2022-07-29T03:21:45;99256.38;;;21.18;70.95
50636;BME280;36598;46.054;11.130;2022-07-29T03:24:10;99258.88;;;20.71;72.08
50636;BME280;36598;46.054;11.130;2022-07-29T03:26:35;99272.31;;;20.29;73.82
50636;BME280;36598;46.054;11.130;2022-07-29T03:29:00;99271.75;;;20.48;73.12
50636;BME280;36598;46.054;11.130;2022-07-29T03:31:26;99269.88;;;19.97;74.59
50636;BME280;36598;46.054;11.130;2022-07-29T03:33:51;99266.34;;;20.36;73.93
50636;BME280;36598;46.054;11.130;2022-07-29T03:36:16;99267.50;;;20.05;74.48
50636;BME280;36598;46.054;11.130;2022-07-29T03:38:42;99263.44;;;20.06;74.30
50636;BME280;36598;46.054;11.130;2022-07-29T03:41:09;99266.09;;;20.24;73.67
50636;BME280;36598;46.054;11.130;2022-07-29T03:43:36;99265.91;;;20.13;73.97
50636;BME280;36598;46.054;11.130;2022-07-29T03:46:02;99266.75;;;19.95;74.50
50636;BME280;36598;46.054;11.130;2022-07-29T03:48:29;99263.78;;;19.99;74.66
50636;BME280;36598;46.054;11.130;2022-07-29T03:50:56;99262.34;;;20.04;73.95
50636;BME280;36598;46.054;11.130;2022-07-29T03:53:22;99260.66;;;20.21;73.51
50636;BME280;36598;46.054;11.130;2022-07-29T03:55:48;99260.72;;;20.36;73.00
50636;BME280;36598;46.054;11.130;2022-07-29T03:58:15;99257.81;;;20.30;72.91
50636;BME280;36598;46.054;11.130;2022-07-29T04:00:41;99257.19;;;19.78;75.71
50636;BME280;36598;46.054;11.130;2022-07-29T04:03:07;99255.25;;;20.17;74.16
50636;BME280;36598;46.054;11.130;2022-07-29T04:05:33;99265.34;;;20.24;73.93
50636;BME280;36598;46.054;11.130;2022-07-29T04:07:58;99262.16;;;20.31;73.28
50636;BME280;36598;46.054;11.130;2022-07-29T04:10:24;99260.38;;;20.19;73.43
50636;BME280;36598;46.054;11.130;2022-07-29T04:12:49;99268.47;;;20.26;73.78
50636;BME280;36598;46.054;11.130;2022-07-29T04:15:14;99269.22;;;20.50;73.16
50636;BME280;36598;46.054;11.130;2022-07-29T04:17:40;99272.06;;;20.65;72.33
50636;BME280;36598;46.054;11.130;2022-07-29T04:20:05;99278.97;;;20.40;72.89
50636;BME280;36598;46.054;11.130;2022-07-29T04:22:30;99274.19;;;20.32;73.40
50636;BME280;36598;46.054;11.130;2022-07-29T04:24:56;99272.25;;;20.38;73.40
50636;BME280;36598;46.054;11.130;2022-07-29T04:27:21;99279.44;;;20.39;73.61
50636;BME280;36598;46.054;11.130;2022-07-29T04:29:46;99282.72;;;20.61;72.41
50636;BME280;36598;46.054;11.130;2022-07-29T04:32:11;99271.53;;;20.91;71.70
50636;BME280;36598;46.054;11.130;2022-07-29T04:34:37;99283.19;;;20.60;71.94
50636;BME280;36598;46.054;11.130;2022-07-29T04:37:02;99284.81;;;20.27;72.97
50636;BME280;36598;46.054;11.130;2022-07-29T04:39:27;99289.53;;;20.45;72.21
50636;BME280;36598;46.054;11.130;2022-07-29T04:41:53;99289.00;;;20.32;72.86
50636;BME280;36598;46.054;11.130;2022-07-29T04:44:18;99287.16;;;20.05;73.90
50636;BME280;36598;46.054;11.130;2022-07-29T04:46:43;99283.50;;;20.38;73.11
50636;BME280;36598;46.054;11.130;2022-07-29T04:49:09;99288.34;;;20.61;72.12
50636;BME280;36598;46.054;11.130;2022-07-29T04:51:34;99286.00;;;20.60;71.69
50636;BME280;36598;46.054;11.130;2022-07-29T04:54:00;99276.56;;;20.87;71.21
50636;BME280;36598;46.054;11.130;2022-07-29T04:56:25;99279.28;;;20.96;70.09
50636;BME280;36598;46.054;11.130;2022-07-29T04:58:50;99285.56;;;21.06;69.61
50636;BME280;36598;46.054;11.130;2022-07-29T05:01:16;99292.69;;;21.16;70.10
50636;BME280;36598;46.054;11.130;2022-07-29T05:03:41;99297.78;;;20.73;71.45
50636;BME280;36598;46.054;11.130;2022-07-29T05:06:06;99297.78;;;20.88;71.28
50636;BME280;36598;46.054;11.130;2022-07-29T05:08:32;99293.03;;;20.79;71.68
50636;BME280;36598;46.054;11.130;2022-07-29T05:10:57;99300.63;;;21.17;69.76
50636;BME280;36598;46.054;11.130;2022-07-29T05:13:22;99288.00;;;20.98;70.12
50636;BME280;36598;46.054;11.130;2022-07-29T05:15:48;99289.25;;;21.26;69.21
50636;BME280;36598;46.054;11.130;2022-07-29T05:18:13;99297.91;;;21.08;69.96
50636;BME280;36598;46.054;11.130;2022-07-29T05:20:39;99299.94;;;21.22;69.41
50636;BME280;36598;46.054;11.130;2022-07-29T05:23:04;99305.41;;;20.72;71.31
50636;BME280;36598;46.054;11.130;2022-07-29T05:25:29;99310.56;;;20.74;71.23
50636;BME280;36598;46.054;11.130;2022-07-29T05:27:55;99302.09;;;21.13;69.83
50636;BME280;36598;46.054;11.130;2022-07-29T05:30:21;99309.38;;;21.34;69.03
50636;BME280;36598;46.054;11.130;2022-07-29T05:32:46;99310.25;;;21.55;68.27
50636;BME280;36598;46.054;11.130;2022-07-29T05:35:12;99312.31;;;20.71;71.33
50636;BME280;36598;46.054;11.130;2022-07-29T05:37:38;99304.59;;;21.11;70.15
50636;BME280;36598;46.054;11.130;2022-07-29T05:40:03;99309.16;;;21.67;68.22
50636;BME280;36598;46.054;11.130;2022-07-29T05:42:29;99302.84;;;21.58;68.34
50636;BME280;36598;46.054;11.130;2022-07-29T05:44:54;99293.78;;;22.04;67.16
50636;BME280;36598;46.054;11.130;2022-07-29T05:47:20;99294.63;;;22.45;65.52
50636;BME280;36598;46.054;11.130;2022-07-29T05:49:45;99301.28;;;22.68;64.26
50636;BME280;36598;46.054;11.130;2022-07-29T05:52:11;99307.84;;;23.00;63.62
50636;BME280;36598;46.054;11.130;2022-07-29T05:54:36;99304.81;;;23.35;62.37
50636;BME280;36598;46.054;11.130;2022-07-29T05:57:02;99305.78;;;23.64;61.52
50636;BME280;36598;46.054;11.130;2022-07-29T05:59:27;99297.84;;;23.31;61.28
50636;BME280;36598;46.054;11.130;2022-07-29T06:01:52;99303.69;;;22.75;63.11
50636;BME280;36598;46.054;11.130;2022-07-29T06:04:18;99290.63;;;23.30;61.86
50636;BME280;36598;46.054;11.130;2022-07-29T06:06:43;99303.56;;;23.10;61.78
50636;BME280;36598;46.054;11.130;2022-07-29T06:09:08;99302.81;;;23.41;60.33
50636;BME280;36598;46.054;11.130;2022-07-29T06:11:33;99306.03;;;23.92;59.80
50636;BME280;36598;46.054;11.130;2022-07-29T06:13:59;99310.69;;;24.38;58.43
50636;BME280;36598;46.054;11.130;2022-07-29T06:16:24;99308.13;;;23.97;58.44
50636;BME280;36598;46.054;11.130;2022-07-29T06:18:49;99317.50;;;24.20;59.01
50636;BME280;36598;46.054;11.130;2022-07-29T06:21:15;99314.06;;;23.99;58.78
50636;BME280;36598;46.054;11.130;2022-07-29T06:23:40;99315.13;;;24.61;57.24
50636;BME280;36598;46.054;11.130;2022-07-29T06:26:05;99313.91;;;24.73;56.39
50636;BME280;36598;46.054;11.130;2022-07-29T06:28:31;99311.56;;;24.66;55.91
50636;BME280;36598;46.054;11.130;2022-07-29T06:30:56;99313.47;;;24.97;55.68
50636;BME280;36598;46.054;11.130;2022-07-29T06:33:22;99313.19;;;24.30;57.22
50636;BME280;36598;46.054;11.130;2022-07-29T06:35:47;99312.56;;;24.09;57.75
50636;BME280;36598;46.054;11.130;2022-07-29T06:38:13;99318.47;;;24.54;56.59
50636;BME280;36598;46.054;11.130;2022-07-29T06:40:42;99319.03;;;24.75;56.58
50636;BME280;36598;46.054;11.130;2022-07-29T06:43:30;99313.75;;;23.97;57.38
50636;BME280;36598;46.054;11.130;2022-07-29T06:46:00;99315.53;;;23.57;59.10
50636;BME280;36598;46.054;11.130;2022-07-29T06:48:26;99311.75;;;24.03;57.83
50636;BME280;36598;46.054;11.130;2022-07-29T06:50:51;99303.47;;;24.37;57.39
50636;BME280;36598;46.054;11.130;2022-07-29T06:53:17;99309.06;;;24.91;56.39
50636;BME280;36598;46.054;11.130;2022-07-29T06:55:42;99305.28;;;25.11;55.82
50636;BME280;36598;46.054;11.130;2022-07-29T06:58:07;99298.06;;;25.27;54.05
50636;BME280;36598;46.054;11.130;2022-07-29T07:00:34;99302.72;;;25.18;54.79
50636;BME280;36598;46.054;11.130;2022-07-29T07:02:59;99304.00;;;25.40;53.72
50636;BME280;36598;46.054;11.130;2022-07-29T07:05:24;99299.34;;;25.26;53.39
50636;BME280;36598;46.054;11.130;2022-07-29T07:07:49;99303.22;;;25.34;53.71
50636;BME280;36598;46.054;11.130;2022-07-29T07:10:15;99288.00;;;25.48;52.96
50636;BME280;36598;46.054;11.130;2022-07-29T07:12:40;99304.50;;;25.55;52.60
50636;BME280;36598;46.054;11.130;2022-07-29T07:15:05;99293.44;;;25.63;52.69
50636;BME280;36598;46.054;11.130;2022-07-29T07:17:31;99311.97;;;25.47;52.72
50636;BME280;36598;46.054;11.130;2022-07-29T07:19:56;99298.06;;;25.77;51.59
50636;BME280;36598;46.054;11.130;2022-07-29T07:22:21;99298.06;;;25.77;51.52
50636;BME280;36598;46.054;11.130;2022-07-29T07:24:47;99292.34;;;26.11;51.56
50636;BME280;36598;46.054;11.130;2022-07-29T07:27:12;99290.81;;;25.98;50.58
50636;BME280;36598;46.054;11.130;2022-07-29T07:29:37;99285.31;;;26.29;50.69
50636;BME280;36598;46.054;11.130;2022-07-29T07:32:06;99275.72;;;26.49;50.03
50636;BME280;36598;46.054;11.130;2022-07-29T07:34:31;99283.13;;;26.68;49.40
50636;BME280;36598;46.054;11.130;2022-07-29T07:36:56;99270.41;;;26.75;49.48
50636;BME280;36598;46.054;11.130;2022-07-29T07:39:21;99276.03;;;26.86;48.70
50636;BME280;36598;46.054;11.130;2022-07-29T07:41:47;99278.09;;;26.86;49.08
50636;BME280;36598;46.054;11.130;2022-07-29T07:44:12;99279.19;;;26.77;49.39
50636;BME280;36598;46.054;11.130;2022-07-29T07:46:37;99270.47;;;26.69;49.13
50636;BME280;36598;46.054;11.130;2022-07-29T07:49:02;99271.03;;;26.57;49.57
50636;BME280;36598;46.054;11.130;2022-07-29T07:51:28;99260.41;;;26.68;49.38
50636;BME280;36598;46.054;11.130;2022-07-29T07:53:53;99268.59;;;26.78;49.53
50636;BME280;36598;46.054;11.130;2022-07-29T07:56:18;99265.41;;;26.51;49.51
50636;BME280;36598;46.054;11.130;2022-07-29T07:58:44;99267.75;;;26.47;49.73
50636;BME280;36598;46.054;11.130;2022-07-29T08:01:09;99264.63;;;26.92;49.36
50636;BME280;36598;46.054;11.130;2022-07-29T08:03:34;99260.16;;;27.02;48.50
50636;BME280;36598;46.054;11.130;2022-07-29T08:05:59;99257.94;;;26.89;48.55
50636;BME280;36598;46.054;11.130;2022-07-29T08:08:25;99258.34;;;27.10;48.39
50636;BME280;36598;46.054;11.130;2022-07-29T08:10:50;99250.16;;;26.95;48.54
50636;BME280;36598;46.054;11.130;2022-07-29T08:13:19;99250.22;;;27.26;47.37
50636;BME280;36598;46.054;11.130;2022-07-29T08:15:45;99246.41;;;27.17;46.95
50636;BME280;36598;46.054;11.130;2022-07-29T08:18:11;99230.00;;;27.35;47.04
50636;BME280;36598;46.054;11.130;2022-07-29T08:20:36;99222.88;;;27.23;47.18
50636;BME280;36598;46.054;11.130;2022-07-29T08:23:03;99238.38;;;27.21;47.12
50636;BME280;36598;46.054;11.130;2022-07-29T08:25:29;99226.81;;;27.44;46.40
50636;BME280;36598;46.054;11.130;2022-07-29T08:27:54;99224.81;;;27.88;46.36
50636;BME280;36598;46.054;11.130;2022-07-29T08:30:20;99221.28;;;27.82;45.42
50636;BME280;36598;46.054;11.130;2022-07-29T08:32:47;99219.47;;;27.84;45.05
50636;BME280;36598;46.054;11.130;2022-07-29T08:35:12;99222.03;;;28.07;45.24
50636;BME280;36598;46.054;11.130;2022-07-29T08:37:37;99212.75;;;28.25;44.70
50636;BME280;36598;46.054;11.130;2022-07-29T08:40:03;99216.13;;;28.24;44.79
50636;BME280;36598;46.054;11.130;2022-07-29T08:42:28;99214.47;;;28.53;44.61
50636;BME280;36598;46.054;11.130;2022-07-29T08:44:54;99215.13;;;28.21;43.79
50636;BME280;36598;46.054;11.130;2022-07-29T08:47:19;99210.66;;;28.07;43.46
50636;BME280;36598;46.054;11.130;2022-07-29T08:49:45;99209.13;;;28.06;43.70
50636;BME280;36598;46.054;11.130;2022-07-29T08:52:12;99204.28;;;28.19;43.95
50636;BME280;36598;46.054;11.130;2022-07-29T08:54:39;99198.91;;;28.35;43.69
50636;BME280;36598;46.054;11.130;2022-07-29T13:14:00;98905.91;;;30.53;37.01
50636;BME280;36598;46.054;11.130;2022-07-29T13:16:25;98903.13;;;30.32;38.13
50636;BME280;36598;46.054;11.130;2022-07-29T13:19:02;98898.00;;;30.88;37.37
50636;BME280;36598;46.054;11.130;2022-07-29T13:21:30;98909.19;;;30.86;37.95
50636;BME280;36598;46.054;11.130;2022-07-29T13:23:55;98897.38;;;30.82;36.82
50636;BME280;36598;46.054;11.130;2022-07-29T13:26:20;98903.16;;;30.40;37.68
50636;BME280;36598;46.054;11.130;2022-07-29T13:28:46;98896.41;;;30.51;37.96
50636;BME280;36598;46.054;11.130;2022-07-29T13:31:11;98894.41;;;30.38;39.08
50636;BME280;36598;46.054;11.130;2022-07-29T13:33:36;98894.31;;;30.51;39.05
50636;BME280;36598;46.054;11.130;2022-07-29T13:36:02;98893.38;;;30.28;39.37
50636;BME280;36598;46.054;11.130;2022-07-29T13:38:27;98882.03;;;30.14;39.92
50636;BME280;36598;46.054;11.130;2022-07-29T13:40:52;98886.41;;;30.36;39.69
50636;BME280;36598;46.054;11.130;2022-07-29T13:43:17;98879.31;;;30.58;40.18
50636;BME280;36598;46.054;11.130;2022-07-29T13:45:43;98864.47;;;30.60;40.53
50636;BME280;36598;46.054;11.130;2022-07-29T13:48:08;98855.28;;;30.82;40.34
50636;BME280;36598;46.054;11.130;2022-07-29T13:50:33;98846.03;;;31.05;41.18
50636;BME280;36598;46.054;11.130;2022-07-29T13:52:58;98836.63;;;30.81;40.74
50636;BME280;36598;46.054;11.130;2022-07-29T13:55:24;98837.84;;;30.65;40.31
50636;BME280;36598;46.054;11.130;2022-07-29T13:57:49;98833.19;;;30.83;40.78
50636;BME280;36598;46.054;11.130;2022-07-29T14:00:15;98823.91;;;30.90;41.48
50636;BME280;36598;46.054;11.130;2022-07-29T14:02:41;98815.91;;;30.96;41.24
50636;BME280;36598;46.054;11.130;2022-07-29T14:05:07;98808.91;;;30.97;41.56
50636;BME280;36598;46.054;11.130;2022-07-29T14:07:32;98809.09;;;30.99;41.51
50636;BME280;36598;46.054;11.130;2022-07-29T14:09:58;98806.75;;;30.90;39.01
50636;BME280;36598;46.054;11.130;2022-07-29T14:12:23;98814.97;;;30.93;39.99
50636;BME280;36598;46.054;11.130;2022-07-29T14:14:48;98820.16;;;31.03;39.61
50636;BME280;36598;46.054;11.130;2022-07-29T14:17:14;98830.00;;;30.94;38.89
50636;BME280;36598;46.054;11.130;2022-07-29T14:19:39;98825.78;;;30.80;38.54
50636;BME280;36598;46.054;11.130;2022-07-29T14:22:05;98827.22;;;31.09;39.63
50636;BME280;36598;46.054;11.130;2022-07-29T14:24:30;98830.97;;;30.89;40.02
50636;BME280;36598;46.054;11.130;2022-07-29T14:26:56;98829.63;;;30.61;41.35
50636;BME280;36598;46.054;11.130;2022-07-29T14:29:21;98830.34;;;30.75;41.05
50636;BME280;36598;46.054;11.130;2022-07-29T14:31:46;98830.75;;;30.22;41.65
50636;BME280;36598;46.054;11.130;2022-07-29T14:34:12;98829.94;;;30.42;41.75
50636;BME280;36598;46.054;11.130;2022-07-29T14:36:37;98826.16;;;30.48;41.99
50636;BME280;36598;46.054;11.130;2022-07-29T14:39:02;98827.06;;;30.42;41.14
50636;BME280;36598;46.054;11.130;2022-07-29T14:41:28;98819.13;;;30.20;41.21
50636;BME280;36598;46.054;11.130;2022-07-29T14:43:54;98816.97;;;30.13;42.02
50636;BME280;36598;46.054;11.130;2022-07-29T14:46:19;98823.19;;;29.83;42.92
50636;BME280;36598;46.054;11.130;2022-07-29T14:48:45;98828.19;;;29.90;43.41
50636;BME280;36598;46.054;11.130;2022-07-29T14:51:10;98815.81;;;29.87;43.12
50636;BME280;36598;46.054;11.130;2022-07-29T14:53:35;98819.16;;;29.57;44.49
50636;BME280;36598;46.054;11.130;2022-07-29T14:56:01;98823.84;;;29.55;44.65
50636;BME280;36598;46.054;11.130;2022-07-29T14:58:26;98816.66;;;29.75;44.72
50636;BME280;36598;46.054;11.130;2022-07-29T15:00:51;98805.81;;;29.73;44.57
50636;BME280;36598;46.054;11.130;2022-07-29T15:03:17;98804.34;;;29.59;44.32
50636;BME280;36598;46.054;11.130;2022-07-29T15:05:42;98802.06;;;29.57;44.62
50636;BME280;36598;46.054;11.130;2022-07-29T15:08:08;98800.03;;;29.65;44.58
50636;BME280;36598;46.054;11.130;2022-07-29T15:10:33;98795.91;;;29.53;44.37
50636;BME280;36598;46.054;11.130;2022-07-29T15:12:58;98793.66;;;29.73;44.08
50636;BME280;36598;46.054;11.130;2022-07-29T15:15:24;98796.09;;;29.68;44.53
50636;BME280;36598;46.054;11.130;2022-07-29T15:17:50;98796.41;;;29.44;45.04
50636;BME280;36598;46.054;11.130;2022-07-29T15:20:15;98799.47;;;29.25;45.46
50636;BME280;36598;46.054;11.130;2022-07-29T15:22:40;98792.16;;;29.16;46.20
50636;BME280;36598;46.054;11.130;2022-07-29T15:25:08;98792.25;;;29.11;45.73
50636;BME280;36598;46.054;11.130;2022-07-29T15:27:34;98789.31;;;29.03;45.91
50636;BME280;36598;46.054;11.130;2022-07-29T15:29:59;98789.69;;;29.00;45.81
50636;BME280;36598;46.054;11.130;2022-07-29T15:32:24;98790.50;;;28.74;47.57
50636;BME280;36598;46.054;11.130;2022-07-29T15:34:50;98790.63;;;28.15;48.77
50636;BME280;36598;46.054;11.130;2022-07-29T15:37:15;98795.75;;;28.03;49.23
50636;BME280;36598;46.054;11.130;2022-07-29T15:39:40;98805.81;;;28.04;49.47
50636;BME280;36598;46.054;11.130;2022-07-29T15:42:05;98799.88;;;27.89;50.32
50636;BME280;36598;46.054;11.130;2022-07-29T15:44:31;98816.72;;;27.87;51.07
50636;BME280;36598;46.054;11.130;2022-07-29T15:46:56;98807.63;;;27.75;51.97
50636;BME280;36598;46.054;11.130;2022-07-29T15:49:28;98801.59;;;27.79;51.99
50636;BME280;36598;46.054;11.130;2022-07-29T15:52:00;98817.91;;;27.78;51.97
50636;BME280;36598;46.054;11.130;2022-07-29T15:54:26;98827.63;;;27.83;51.68
50636;BME280;36598;46.054;11.130;2022-07-29T15:56:51;98833.13;;;27.81;51.73
50636;BME280;36598;46.054;11.130;2022-07-29T15:59:17;98830.41;;;27.88;51.05
50636;BME280;36598;46.054;11.130;2022-07-29T16:01:42;98827.44;;;27.81;50.83
50636;BME280;36598;46.054;11.130;2022-07-29T16:04:08;98834.31;;;27.85;50.41
50636;BME280;36598;46.054;11.130;2022-07-29T16:06:33;98841.66;;;27.94;50.31
50636;BME280;36598;46.054;11.130;2022-07-29T16:08:58;98858.72;;;27.94;48.97
50636;BME280;36598;46.054;11.130;2022-07-29T16:11:24;98863.47;;;27.73;47.77
50636;BME280;36598;46.054;11.130;2022-07-29T16:13:50;98876.53;;;27.81;47.02
50636;BME280;36598;46.054;11.130;2022-07-29T16:16:15;98872.16;;;27.80;47.35
50636;BME280;36598;46.054;11.130;2022-07-29T16:18:42;98877.53;;;27.65;46.74
50636;BME280;36598;46.054;11.130;2022-07-29T16:21:07;98885.38;;;27.40;47.08
50636;BME280;36598;46.054;11.130;2022-07-29T16:23:33;98890.09;;;27.37;47.45
50636;BME280;36598;46.054;11.130;2022-07-29T16:25:58;98898.41;;;26.92;48.88
50636;BME280;36598;46.054;11.130;2022-07-29T16:28:23;98896.47;;;26.81;49.69
50636;BME280;36598;46.054;11.130;2022-07-29T16:30:48;98892.19;;;26.20;52.74
50636;BME280;36598;46.054;11.130;2022-07-29T16:33:15;98889.28;;;26.01;53.53
50636;BME280;36598;46.054;11.130;2022-07-29T16:35:40;98896.63;;;25.85;53.27
50636;BME280;36598;46.054;11.130;2022-07-29T16:38:06;98902.31;;;25.44;53.92
50636;BME280;36598;46.054;11.130;2022-07-29T16:40:31;98904.25;;;25.13;54.86
50636;BME280;36598;46.054;11.130;2022-07-29T16:42:56;98905.03;;;25.19;56.15
50636;BME280;36598;46.054;11.130;2022-07-29T16:45:22;98904.50;;;25.62;57.01
50636;BME280;36598;46.054;11.130;2022-07-29T16:47:47;98899.94;;;25.54;55.97
50636;BME280;36598;46.054;11.130;2022-07-29T16:50:13;98903.81;;;25.51;56.11
50636;BME280;36598;46.054;11.130;2022-07-29T16:52:38;98916.84;;;25.65;56.03
50636;BME280;36598;46.054;11.130;2022-07-29T16:55:04;98908.59;;;25.26;56.23
50636;BME280;36598;46.054;11.130;2022-07-29T16:57:29;98924.34;;;25.62;56.42
50636;BME280;36598;46.054;11.130;2022-07-29T16:59:54;98933.88;;;25.59;55.18
50636;BME280;36598;46.054;11.130;2022-07-29T17:02:20;98957.03;;;25.05;55.51
50636;BME280;36598;46.054;11.130;2022-07-29T17:04:45;98967.09;;;25.06;56.70
50636;BME280;36598;46.054;11.130;2022-07-29T17:07:10;98988.03;;;24.64;56.76
50636;BME280;36598;46.054;11.130;2022-07-29T17:09:36;98990.34;;;24.48;57.99
50636;BME280;36598;46.054;11.130;2022-07-29T17:12:01;98977.22;;;24.23;58.04
50636;BME280;36598;46.054;11.130;2022-07-29T17:14:29;98979.03;;;24.20;57.72
50636;BME280;36598;46.054;11.130;2022-07-29T17:16:56;98969.50;;;24.01;57.92
50636;BME280;36598;46.054;11.130;2022-07-29T17:19:21;98974.91;;;24.05;56.09
50636;BME280;36598;46.054;11.130;2022-07-29T17:21:47;98984.91;;;23.89;56.41
50636;BME280;36598;46.054;11.130;2022-07-29T17:24:12;98985.19;;;23.96;55.47